createdAt,value
2023-01-13T00:00:02.229Z,994.2309443648439
2023-01-13T00:15:01.879Z,994.4010636947445
2023-01-13T00:30:02.502Z,994.2137310337703
2023-01-13T00:45:02.125Z,994.3290918464247
2023-01-13T01:00:01.796Z,994.2181748475625
2023-01-13T01:15:02.473Z,994.3968382768169
2023-01-13T01:30:02.118Z,994.5002778820458
2023-01-13T01:45:01.738Z,994.607970307938
2023-01-13T02:00:02.364Z,994.4464162731113
2023-01-13T02:15:01.930Z,994.7163709853531
2023-01-13T02:30:01.632Z,994.9699356026294
2023-01-13T02:45:02.259Z,995.0133665556687
2023-01-13T03:00:01.865Z,994.8844479371303
2023-01-13T03:15:02.528Z,994.7420985014128
2023-01-13T03:30:02.194Z,994.6037718172024
2023-01-13T03:45:01.819Z,994.7264931739959
2023-01-13T04:00:02.490Z,994.7638503602317
2023-01-13T04:15:02.143Z,994.7971319887736
2023-01-13T04:30:01.750Z,994.4924059299493
2023-01-13T04:45:02.358Z,994.4539857304105
2023-01-13T05:00:01.966Z,994.3859279589185
2023-01-13T05:15:01.616Z,994.1160599981284
2023-01-13T05:30:01.713Z,994.1080538036007
2023-01-13T05:45:02.343Z,994.0553355298033
2023-01-13T06:00:01.918Z,994.016535970085
2023-01-13T06:15:02.545Z,994.0021681598172
2023-01-13T06:30:02.199Z,994.2493308664233
2023-01-13T06:45:01.814Z,994.279813316352
2023-01-13T07:00:02.518Z,994.375183091379
2023-01-13T07:15:02.210Z,994.527302706184
2023-01-13T07:30:01.946Z,994.5985835740389
2023-01-13T07:45:01.702Z,994.6823126797132
2023-01-13T08:00:02.405Z,994.7531742005884
2023-01-13T08:15:02.090Z,994.8849090948243
2023-01-13T08:30:01.806Z,994.946649275945
2023-01-13T08:45:02.519Z,995.0254039307896
2023-01-13T09:00:02.238Z,994.9462824198205
2023-01-13T09:15:01.936Z,995.0895049222195
2023-01-13T09:30:01.661Z,995.1190610260844
2023-01-13T09:45:02.368Z,995.4258150062353
2023-01-13T10:00:02.118Z,995.4154184325115
2023-01-13T10:15:01.820Z,995.446421104566
2023-01-13T10:30:02.541Z,995.3366336872116
2023-01-13T10:45:02.232Z,995.6438895611245
2023-01-13T11:00:01.932Z,995.6695987166299
2023-01-13T11:15:01.621Z,995.7461104346651
2023-01-13T11:30:02.336Z,995.7094931751095
2023-01-13T11:45:02.079Z,996.0151308903571
2023-01-13T12:00:01.761Z,996.1113896844722
2023-01-13T12:15:02.441Z,996.1669421316652
2023-01-13T12:30:02.155Z,996.1219248448426
2023-01-13T12:45:01.838Z,996.0915695324707
2023-01-13T13:00:02.474Z,996.2817646886137
2023-01-13T13:15:03.587Z,996.3872487723263
2023-01-13T13:30:01.774Z,996.3632710793208
2023-01-13T13:45:02.429Z,996.6935387805989
2023-01-13T14:00:02.037Z,997.0197604440019
2023-01-13T14:15:01.672Z,997.2191772037128
2023-01-13T14:30:02.312Z,997.5757771351392
2023-01-13T14:45:01.949Z,997.7067060292825
2023-01-13T15:00:01.640Z,997.8769132867111
2023-01-13T15:15:02.285Z,997.9553373009434
2023-01-13T15:30:01.980Z,998.4251598089475
2023-01-13T15:45:01.632Z,998.596522409805
2023-01-13T16:00:02.299Z,998.7611414372409
2023-01-13T16:15:01.998Z,998.8932691649503
2023-01-13T16:30:01.732Z,998.9773946499216
2023-01-13T16:45:02.414Z,999.2365312472392
2023-01-13T17:00:02.074Z,999.6263116278225
2023-01-13T17:15:01.742Z,999.8365699796677
2023-01-13T17:30:02.394Z,1000.105632595471
2023-01-13T17:45:02.027Z,1000.3177916813275
2023-01-13T18:00:01.701Z,1000.3926307918445
2023-01-13T18:15:02.319Z,1000.4948239892277
2023-01-13T18:30:01.969Z,1000.843488538351
2023-01-13T18:45:01.632Z,1000.9711529615382
2023-01-13T19:00:02.288Z,1001.3167387881091
2023-01-13T19:15:02.000Z,1001.4331161828735
2023-01-13T19:30:02.303Z,1001.7609056935448
2023-01-13T19:45:02.326Z,1002.0156313620528
2023-01-13T20:00:01.924Z,1002.4681456816278
2023-01-13T20:15:01.598Z,1002.6987161075796
2023-01-13T20:30:02.247Z,1002.8645067364894
2023-01-13T20:45:01.901Z,1003.127734465282
2023-01-13T21:00:02.571Z,1003.6302194807804
2023-01-13T21:15:02.279Z,1003.3931849641226
2023-01-13T21:30:01.971Z,1003.6441493540984
2023-01-13T21:45:01.643Z,1003.7378126390794
2023-01-13T22:00:02.294Z,1003.9098679016686
2023-01-13T22:15:01.916Z,1004.2010283150111
2023-01-13T22:30:01.650Z,1004.4241836370634
2023-01-13T22:45:02.305Z,1004.5283906756106
2023-01-13T23:00:02.027Z,1004.7001900298601
2023-01-13T23:15:01.727Z,1004.8745338630697
2023-01-13T23:30:02.372Z,1004.9439975127302
2023-01-13T23:45:02.005Z,1005.0115577568737
